Time;durP1;ratioP1;P1;durP2;ratioP2;P2;SDS_P1;SDS_P2;PMS_P1;PMS_P2;Temp;Humidity;BMP_temperature;BMP_pressure;BME280_temperature;BME280_humidity;BME280_pressure;Samples;Min_cycle;Max_cycle;Signal;HPM_P1;HPM_P2
2021/12/20 00:00:53;;;;;;;6.50;1.20;;;;;;;1.65;85.22;99512.92;102225;1317;60935;-65
2021/12/20 00:03:41;;;;;;;5.20;1.00;;;;;;;1.68;85.02;99532.74;102311;1314;60546;-65
2021/12/20 00:06:28;;;;;;;5.60;1.20;;;;;;;1.68;85.65;99537.30;102143;1310;73638;-65
2021/12/20 00:09:16;;;;;;;7.90;1.50;;;;;;;1.63;86.42;99545.23;102549;1314;66777;-65
2021/12/20 00:12:04;;;;;;;6.30;1.10;;;;;;;1.58;87.38;99555.63;102383;1313;71638;-65
2021/12/20 00:14:54;;;;;;;5.20;1.00;;;;;;;1.53;88.06;99552.00;102339;1310;59676;-65
2021/12/20 00:17:43;;;;;;;4.10;0.80;;;;;;;1.44;89.26;99562.05;102564;1314;60210;-65
2021/12/20 00:20:31;;;;;;;5.50;1.10;;;;;;;1.32;90.01;99559.46;102480;1314;71975;-65
2021/12/20 00:23:19;;;;;;;4.50;0.90;;;;;;;1.21;90.25;99558.05;102150;1314;67224;-65
2021/12/20 00:26:09;;;;;;;7.10;1.40;;;;;;;1.07;90.77;99552.78;102097;1314;71837;-65
2021/12/20 00:28:56;;;;;;;5.90;1.00;;;;;;;0.95;91.59;99548.28;102540;1313;59857;-65
2021/12/20 00:31:45;;;;;;;5.70;1.10;;;;;;;0.87;91.48;99546.55;102471;1317;59642;-65
2021/12/20 00:34:35;;;;;;;5.00;1.10;;;;;;;0.82;91.62;99546.95;102291;1314;72191;-65
2021/12/20 00:40:30;;;;;;;5.90;1.30;;;;;;;0.75;92.60;99554.26;102195;1314;70975;-65
2021/12/20 00:43:18;;;;;;;6.40;1.20;;;;;;;0.72;93.29;99558.41;102453;1313;59815;-65
2021/12/20 00:46:06;;;;;;;6.00;1.30;;;;;;;0.72;93.76;99565.20;102453;1314;59772;-65
2021/12/20 00:48:54;;;;;;;7.00;1.30;;;;;;;0.76;94.06;99556.31;102493;1314;72863;-66
2021/12/20 00:51:41;;;;;;;7.70;1.40;;;;;;;0.81;94.29;99559.54;101316;1314;1005670;-65
2021/12/20 00:54:29;;;;;;;6.10;1.20;;;;;;;0.88;93.98;99579.67;102071;1317;73143;-65
2021/12/20 00:57:17;;;;;;;5.20;1.20;;;;;;;0.92;94.36;99585.11;101991;1313;59807;-65
2021/12/20 01:00:07;;;;;;;5.10;1.10;;;;;;;0.91;94.20;99570.48;102032;1315;59714;-65
2021/12/20 01:02:55;;;;;;;4.80;1.00;;;;;;;0.89;94.49;99569.67;102365;1313;73999;-65
2021/12/20 01:05:43;;;;;;;7.30;1.30;;;;;;;0.89;94.44;99571.25;102290;1313;68316;-65
2021/12/20 01:08:36;;;;;;;6.00;1.20;;;;;;;0.91;94.28;99563.82;102065;1316;71915;-65
2021/12/20 01:11:27;;;;;;;4.90;1.00;;;;;;;0.92;95.04;99558.37;102223;1316;59793;-65
2021/12/20 01:14:22;;;;;;;6.60;1.10;;;;;;;0.95;94.78;99560.51;102331;1314;59682;-65
2021/12/20 01:17:10;;;;;;;6.70;1.40;;;;;;;0.99;94.48;99572.88;103040;1310;74706;-66
2021/12/20 01:19:58;;;;;;;4.90;1.20;;;;;;;1.03;94.69;99576.56;101981;1310;66312;-65
2021/12/20 01:22:48;;;;;;;4.20;1.00;;;;;;;1.06;94.44;99588.81;102587;1310;71526;-66
2021/12/20 01:25:36;;;;;;;6.00;1.20;;;;;;;1.10;94.41;99595.29;102199;1311;59756;-67
2021/12/20 01:28:24;;;;;;;4.60;1.10;;;;;;;1.09;94.74;99600.39;102499;1311;59686;-65
2021/12/20 01:31:12;;;;;;;5.90;1.20;;;;;;;1.08;94.17;99598.69;102383;1310;72282;-65
2021/12/20 01:33:59;;;;;;;5.30;1.20;;;;;;;1.06;94.49;99602.80;102269;1313;68091;-66
2021/12/20 01:36:48;;;;;;;4.60;0.90;;;;;;;1.03;94.31;99594.54;102457;1311;73076;-66
2021/12/20 01:39:36;;;;;;;4.10;0.90;;;;;;;1.04;94.34;99598.71;102335;1314;59723;-65
2021/12/20 01:42:30;;;;;;;6.10;1.20;;;;;;;1.03;94.11;99594.58;102560;1314;60852;-66
2021/12/20 01:45:23;;;;;;;4.00;0.90;;;;;;;1.00;93.98;99592.23;102677;1311;72461;-66
2021/12/20 01:48:13;;;;;;;6.40;1.30;;;;;;;0.98;93.84;99592.99;102255;1314;66944;-65
2021/12/20 01:53:51;;;;;;;6.10;1.30;;;;;;;0.97;94.77;99610.00;102079;1318;59764;-65
2021/12/20 01:56:43;;;;;;;4.50;1.00;;;;;;;0.94;94.99;99612.23;102160;1311;60619;-66
2021/12/20 01:59:31;;;;;;;3.70;1.00;;;;;;;0.92;95.41;99618.11;102505;1314;72496;-65
2021/12/20 02:02:18;;;;;;;7.40;1.30;;;;;;;0.92;95.90;99618.11;102197;1313;68032;-65
2021/12/20 02:05:19;;;;;;;6.70;1.10;;;;;;;0.91;96.32;99624.08;102124;1313;71479;-66
2021/12/20 02:08:20;;;;;;;5.30;1.30;;;;;;;0.92;95.76;99620.38;102758;1313;59612;-65
2021/12/20 02:11:10;;;;;;;5.50;1.20;;;;;;;0.92;96.02;99619.15;102449;1311;59945;-65
2021/12/20 02:13:58;;;;;;;4.70;1.10;;;;;;;0.92;95.96;99624.05;102330;1314;73320;-66
2021/12/20 02:16:46;;;;;;;6.80;1.40;;;;;;;0.91;96.32;99627.07;102355;1310;67247;-66
2021/12/20 02:19:38;;;;;;;6.20;1.00;;;;;;;0.93;96.42;99629.58;102363;1314;71638;-66
2021/12/20 02:22:26;;;;;;;4.60;1.00;;;;;;;0.93;96.46;99622.59;102196;1314;59698;-66
2021/12/20 02:25:14;;;;;;;4.50;1.00;;;;;;;1.01;96.14;99629.58;102018;1313;59679;-65
2021/12/20 02:28:11;;;;;;;5.30;1.10;;;;;;;1.03;96.30;99626.00;102337;1311;71330;-67
2021/12/20 02:37:28;;;;;;;5.80;1.00;;;;;;;1.13;94.67;99633.59;102587;1310;59736;-66
2021/12/20 02:40:09;;;;;;;5.10;1.10;;;;;;;1.15;94.46;99638.03;102149;1310;60821;-65
2021/12/20 02:42:57;;;;;;;7.10;1.20;;;;;;;1.15;94.05;99639.24;102313;1313;72193;-65
2021/12/20 02:45:47;;;;;;;6.60;1.40;;;;;;;1.15;93.69;99638.05;102388;1314;66841;-66
2021/12/20 02:48:35;;;;;;;6.20;1.00;;;;;;;1.11;93.29;99635.95;102468;1311;73020;-65
2021/12/20 02:51:27;;;;;;;4.20;0.90;;;;;;;1.05;93.40;99645.67;102497;1313;59790;-67
2021/12/20 02:54:17;;;;;;;4.70;0.90;;;;;;;0.96;93.39;99643.23;102405;1314;60824;-66
2021/12/20 02:57:05;;;;;;;5.70;1.30;;;;;;;0.87;92.93;99638.27;102165;1313;73554;-65
2021/12/20 02:59:53;;;;;;;5.20;1.00;;;;;;;0.88;92.88;99646.05;102362;1311;68216;-65
2021/12/20 03:02:41;;;;;;;6.80;1.20;;;;;;;0.86;92.28;99643.54;102274;1314;74594;-65
2021/12/20 03:05:29;;;;;;;6.20;1.00;;;;;;;0.83;92.00;99653.78;102368;1316;60019;-67
2021/12/20 03:08:22;;;;;;;5.00;0.90;;;;;;;0.80;91.71;99654.80;102539;1317;59721;-65
2021/12/20 03:11:11;;;;;;;6.20;1.20;;;;;;;0.80;91.40;99660.39;101972;1313;72259;-65
2021/12/20 03:14:11;;;;;;;5.20;1.20;;;;;;;0.82;91.24;99667.27;102619;1316;68333;-65
2021/12/20 03:17:00;;;;;;;5.10;1.20;;;;;;;0.83;90.63;99669.51;102312;1314;73047;-65
2021/12/20 03:19:48;;;;;;;5.40;1.10;;;;;;;0.81;89.60;99669.61;102187;1310;59810;-65
2021/12/20 03:22:35;;;;;;;5.60;1.00;;;;;;;0.79;89.41;99677.55;102331;1310;59786;-65
2021/12/20 03:25:23;;;;;;;5.00;1.10;;;;;;;0.74;89.26;99683.70;102136;1314;73379;-65
2021/12/20 03:28:11;;;;;;;7.10;1.20;;;;;;;0.68;89.39;99691.98;101494;1311;1003556;-65
2021/12/20 03:30:59;;;;;;;4.90;1.00;;;;;;;0.67;90.73;99710.73;102374;1310;73138;-65
2021/12/20 03:33:47;;;;;;;6.30;1.20;;;;;;;0.62;92.27;99715.84;102545;1313;59822;-65
2021/12/20 03:36:36;;;;;;;5.70;1.10;;;;;;;0.53;92.90;99699.61;102099;1316;59800;-65
2021/12/20 03:39:24;;;;;;;4.30;1.00;;;;;;;0.47;92.90;99700.55;102453;1315;70891;-66
2021/12/20 03:42:12;;;;;;;6.00;1.20;;;;;;;0.42;93.15;99700.76;102440;1311;68614;-65
2021/12/20 03:45:00;;;;;;;5.30;1.20;;;;;;;0.40;93.14;99701.04;102165;1317;73142;-66
2021/12/20 03:47:49;;;;;;;6.20;1.00;;;;;;;0.40;92.85;99702.96;102309;1314;59818;-65
2021/12/20 03:50:37;;;;;;;4.50;1.10;;;;;;;0.40;92.81;99704.52;101756;1310;1002668;-65
2021/12/20 03:53:25;;;;;;;5.70;1.10;;;;;;;0.39;92.51;99711.17;102338;1311;72340;-66
2021/12/20 03:56:14;;;;;;;5.30;1.10;;;;;;;0.37;92.47;99711.64;102373;1316;68032;-66
2021/12/20 03:59:02;;;;;;;5.40;1.00;;;;;;;0.31;92.48;99713.61;102344;1313;73071;-66
2021/12/20 04:01:51;;;;;;;4.70;1.20;;;;;;;0.28;92.24;99716.15;102171;1310;60889;-65
2021/12/20 04:04:39;;;;;;;6.20;1.20;;;;;;;0.30;92.37;99722.89;102333;1313;59771;-66
2021/12/20 04:07:27;;;;;;;5.30;1.30;;;;;;;0.35;92.94;99726.70;102631;1313;73371;-66
2021/12/20 04:10:15;;;;;;;6.00;1.20;;;;;;;0.40;91.92;99726.50;102441;1314;67052;-66
2021/12/20 04:13:03;;;;;;;6.40;1.10;;;;;;;0.41;91.31;99725.27;102530;1314;71115;-67
2021/12/20 04:15:53;;;;;;;6.50;1.20;;;;;;;0.42;91.35;99723.11;101985;1310;59745;-65
2021/12/20 04:18:41;;;;;;;5.40;1.10;;;;;;;0.45;91.21;99723.48;102150;1313;59586;-65
2021/12/20 04:21:28;;;;;;;6.20;1.10;;;;;;;0.48;90.73;99723.17;102139;1310;73236;-65
2021/12/20 04:24:16;;;;;;;6.50;1.80;;;;;;;0.53;90.15;99719.52;102445;1310;68440;-66
2021/12/20 04:27:04;;;;;;;5.70;0.90;;;;;;;0.57;89.62;99727.02;102463;1310;73894;-66
2021/12/20 04:29:54;;;;;;;5.20;1.10;;;;;;;0.60;89.44;99745.20;102148;1310;59753;-66
2021/12/20 04:32:46;;;;;;;6.10;1.10;;;;;;;0.56;90.72;99750.80;102376;1310;59712;-66
2021/12/20 04:35:33;;;;;;;6.70;1.10;;;;;;;0.52;90.77;99739.79;101962;1313;73552;-65
2021/12/20 04:38:22;;;;;;;6.50;1.20;;;;;;;0.50;90.65;99745.98;102327;1313;68352;-66
2021/12/20 04:41:10;;;;;;;5.10;1.10;;;;;;;0.47;89.86;99748.05;103017;1310;71679;-66
2021/12/20 04:43:58;;;;;;;6.40;1.20;;;;;;;0.41;89.97;99751.06;102545;1314;59708;-66
2021/12/20 04:46:45;;;;;;;7.20;1.40;;;;;;;0.39;89.93;99753.08;102517;1310;61082;-66
2021/12/20 04:49:33;;;;;;;6.10;1.20;;;;;;;0.37;90.20;99754.05;102210;1314;73537;-67
2021/12/20 04:52:21;;;;;;;5.40;1.30;;;;;;;0.35;90.28;99756.55;102520;1311;68316;-66
2021/12/20 04:55:12;;;;;;;5.40;1.20;;;;;;;0.36;90.74;99757.38;102722;1311;72203;-66
2021/12/20 04:58:02;;;;;;;5.60;1.20;;;;;;;0.38;90.71;99758.69;102462;1310;59707;-67
2021/12/20 05:00:50;;;;;;;5.90;1.10;;;;;;;0.41;90.34;99759.09;102535;1310;60821;-66
2021/12/20 05:03:38;;;;;;;4.80;1.40;;;;;;;0.43;89.93;99756.39;102329;1310;72179;-67
2021/12/20 05:06:26;;;;;;;5.10;1.20;;;;;;;0.45;88.30;99763.45;102206;1310;68045;-66
2021/12/20 05:09:13;;;;;;;9.90;1.70;;;;;;;0.48;88.26;99774.67;102179;1310;73099;-66
2021/12/20 05:12:10;;;;;;;16.60;3.00;;;;;;;0.51;87.43;99770.90;102429;1311;59725;-67
2021/12/20 05:14:58;;;;;;;12.00;2.70;;;;;;;0.54;86.28;99772.21;102800;1310;60708;-66
2021/12/20 05:17:46;;;;;;;12.90;2.50;;;;;;;0.56;86.20;99765.64;102375;1313;73199;-66
2021/12/20 05:20:34;;;;;;;16.50;2.70;;;;;;;0.57;85.15;99768.21;102211;1311;68198;-66
2021/12/20 05:23:23;;;;;;;13.10;3.00;;;;;;;0.57;83.91;99773.46;102423;1311;72706;-67
2021/12/20 05:26:10;;;;;;;14.00;2.80;;;;;;;0.55;84.29;99777.54;102310;1313;59831;-67
2021/12/20 05:28:58;;;;;;;19.70;3.00;;;;;;;0.56;83.65;99781.16;102395;1311;59809;-65
2021/12/20 05:31:47;;;;;;;13.50;2.50;;;;;;;0.58;83.45;99781.45;102586;1311;73916;-66
2021/12/20 05:34:35;;;;;;;12.10;2.10;;;;;;;0.57;83.27;99779.04;102748;1314;66812;-67
2021/12/20 05:37:25;;;;;;;10.10;1.70;;;;;;;0.55;83.51;99784.02;102559;1311;72989;-66
2021/12/20 05:40:14;;;;;;;13.10;2.70;;;;;;;0.50;83.41;99788.95;102456;1310;59704;-66
2021/12/20 05:43:04;;;;;;;10.80;1.90;;;;;;;0.45;83.69;99792.43;102272;1311;60083;-66
2021/12/20 05:45:50;;;;;;;10.30;2.40;;;;;;;0.44;83.55;99794.40;102514;1311;73872;-66
2021/12/20 05:48:37;;;;;;;10.90;2.30;;;;;;;0.44;82.39;99798.58;102510;1312;68422;-66
2021/12/20 05:51:25;;;;;;;7.50;1.30;;;;;;;0.45;82.24;99801.52;102259;1311;74491;-66
2021/12/20 05:54:12;;;;;;;11.20;1.70;;;;;;;0.47;82.79;99822.06;102295;1314;59682;-65
2021/12/20 05:57:04;;;;;;;7.80;1.50;;;;;;;0.39;86.94;99834.25;102529;1310;60674;-65
2021/12/20 05:59:53;;;;;;;7.50;1.70;;;;;;;0.26;89.01;99831.79;101142;1310;1488403;-66
2021/12/20 06:02:55;;;;;;;8.90;2.30;;;;;;;0.14;90.71;99835.56;102581;1310;68287;-65
2021/12/20 06:05:42;;;;;;;8.90;1.90;;;;;;;0.04;91.95;99836.63;102824;1310;71371;-66
2021/12/20 06:08:30;;;;;;;9.60;1.70;;;;;;;-0.05;92.69;99836.58;102680;1310;59750;-66
2021/12/20 06:11:17;;;;;;;11.90;2.20;;;;;;;-0.13;92.16;99838.32;102571;1310;60685;-67
2021/12/20 06:14:05;;;;;;;7.90;1.70;;;;;;;-0.20;92.18;99836.63;102699;1310;73125;-66
2021/12/20 06:16:52;;;;;;;6.20;1.60;;;;;;;-0.25;92.35;99840.47;102255;1310;66513;-66
2021/12/20 06:19:40;;;;;;;7.80;1.50;;;;;;;-0.25;91.95;99841.37;102801;1311;73614;-66
2021/12/20 06:22:29;;;;;;;7.40;1.50;;;;;;;-0.26;91.77;99842.61;102551;1314;59810;-65
2021/12/20 06:25:16;;;;;;;9.10;1.90;;;;;;;-0.27;91.66;99844.56;102176;1311;59770;-66
2021/12/20 06:28:04;;;;;;;8.00;1.50;;;;;;;-0.30;91.25;99846.08;102516;1310;73147;-65
2021/12/20 06:30:52;;;;;;;7.20;1.80;;;;;;;-0.31;91.19;99846.10;102354;1311;67319;-65
2021/12/20 06:33:40;;;;;;;8.20;1.60;;;;;;;-0.31;90.88;99847.87;102237;1310;71351;-65
2021/12/20 06:36:29;;;;;;;8.30;1.60;;;;;;;-0.29;90.75;99850.23;102422;1310;59672;-66
2021/12/20 06:39:16;;;;;;;8.60;1.90;;;;;;;-0.27;90.43;99853.83;102705;1310;59646;-66
2021/12/20 06:42:04;;;;;;;8.00;1.80;;;;;;;-0.28;90.33;99853.49;102785;1311;72113;-65
2021/12/20 06:44:54;;;;;;;6.40;1.50;;;;;;;-0.28;90.14;99855.95;102365;1311;68144;-66
2021/12/20 06:47:47;;;;;;;7.40;1.50;;;;;;;-0.31;90.15;99856.27;102526;1310;70431;-66
2021/12/20 06:50:34;;;;;;;5.90;1.50;;;;;;;-0.31;90.07;99861.13;102202;1310;59790;-66
2021/12/20 06:53:22;;;;;;;7.70;1.70;;;;;;;-0.28;90.10;99868.86;102250;1311;59670;-66
2021/12/20 06:56:12;;;;;;;7.00;2.10;;;;;;;-0.24;90.81;99879.17;102992;1310;73254;-66
2021/12/20 06:58:59;;;;;;;6.20;1.80;;;;;;;-0.22;91.90;99881.20;101737;1310;1003927;-66
2021/12/20 07:01:46;;;;;;;6.80;1.40;;;;;;;-0.27;93.41;99888.67;102659;1311;70964;-67
2021/12/20 07:04:34;;;;;;;6.10;1.60;;;;;;;-0.30;94.20;99893.16;102313;1304;59687;-66
2021/12/20 07:07:22;;;;;;;7.90;1.90;;;;;;;-0.33;94.89;99898.67;102768;1310;61758;-66
2021/12/20 07:10:10;;;;;;;9.90;2.30;;;;;;;-0.37;95.53;99895.30;102619;1310;73466;-66
2021/12/20 07:12:57;;;;;;;9.60;1.90;;;;;;;-0.38;95.63;99900.06;102605;1310;66576;-66
2021/12/20 07:15:44;;;;;;;7.50;1.70;;;;;;;-0.39;96.25;99901.84;102646;1310;70584;-66
2021/12/20 07:18:31;;;;;;;7.00;1.70;;;;;;;-0.42;97.46;99904.89;102436;1310;59870;-65
2021/12/20 07:21:18;;;;;;;7.50;1.90;;;;;;;-0.42;97.57;99902.27;102642;1313;60100;-66
2021/12/20 07:24:06;;;;;;;6.40;1.70;;;;;;;-0.48;97.62;99894.11;102814;1311;72187;-66
2021/12/20 07:26:53;;;;;;;6.30;1.80;;;;;;;-0.43;97.66;99914.70;102434;1314;66986;-66
2021/12/20 07:29:41;;;;;;;9.80;2.20;;;;;;;-0.40;98.29;99924.00;102571;1314;72936;-66
2021/12/20 07:32:28;;;;;;;5.70;1.70;;;;;;;-0.38;97.19;99925.88;102310;1311;59706;-65
2021/12/20 07:35:17;;;;;;;8.40;1.70;;;;;;;-0.38;96.75;99936.66;102540;1310;59705;-66
2021/12/20 07:38:05;;;;;;;8.70;1.80;;;;;;;-0.37;96.04;99935.91;102345;1310;72427;-66
2021/12/20 07:40:54;;;;;;;9.10;1.60;;;;;;;-0.36;94.86;99939.04;102475;1310;66980;-66
2021/12/20 07:43:41;;;;;;;6.00;1.70;;;;;;;-0.36;93.73;99937.30;102338;1314;71676;-66
2021/12/20 07:46:28;;;;;;;7.50;1.50;;;;;;;-0.35;92.44;99938.83;102498;1311;59618;-65
2021/12/20 07:49:16;;;;;;;6.20;1.80;;;;;;;-0.32;92.49;99943.95;102413;1316;59621;-66
2021/12/20 07:52:21;;;;;;;5.70;1.70;;;;;;;-0.31;93.03;99946.55;102235;1311;74452;-66
2021/12/20 07:55:10;;;;;;;6.00;1.90;;;;;;;-0.32;92.92;99948.32;102561;1312;68658;-67
2021/12/20 07:57:57;;;;;;;7.10;1.90;;;;;;;-0.32;92.75;99946.40;102603;1309;73343;-66
2021/12/20 08:00:44;;;;;;;6.50;1.60;;;;;;;-0.31;92.07;99948.64;102686;1313;59774;-66
2021/12/20 08:03:34;;;;;;;7.10;1.80;;;;;;;-0.30;91.82;99961.87;102575;1311;60870;-66
2021/12/20 08:06:21;;;;;;;7.30;1.70;;;;;;;-0.26;91.77;99971.47;102445;1316;72797;-66
2021/12/20 08:09:10;;;;;;;6.00;1.80;;;;;;;-0.24;92.03;99981.00;102639;1314;68392;-67
2021/12/20 08:11:57;;;;;;;7.40;1.80;;;;;;;-0.28;92.06;99979.75;102586;1313;71667;-66
2021/12/20 08:14:44;;;;;;;8.00;2.10;;;;;;;-0.33;91.44;99981.33;102476;1310;59662;-66
2021/12/20 08:17:32;;;;;;;6.20;1.70;;;;;;;-0.34;91.25;99990.75;102472;1311;60593;-66
2021/12/20 08:20:19;;;;;;;6.70;1.50;;;;;;;-0.31;91.08;99992.73;102563;1310;72408;-66
2021/12/20 08:23:07;;;;;;;6.10;1.90;;;;;;;-0.28;90.89;99989.00;102177;1310;66625;-66
2021/12/20 08:25:54;;;;;;;5.40;1.70;;;;;;;-0.27;90.79;99997.13;102543;1310;70636;-66
2021/12/20 08:28:41;;;;;;;5.20;1.50;;;;;;;-0.29;89.41;100000.55;102319;1311;60596;-66
2021/12/20 08:31:28;;;;;;;6.30;1.60;;;;;;;-0.31;89.26;100005.30;102435;1310;60007;-66
2021/12/20 08:34:14;;;;;;;6.70;1.90;;;;;;;-0.29;89.43;100004.20;102334;1310;73698;-65
2021/12/20 08:37:02;;;;;;;7.20;2.00;;;;;;;-0.24;88.31;100012.56;102464;1310;68161;-66
2021/12/20 08:39:50;;;;;;;7.10;2.10;;;;;;;-0.15;87.83;100016.27;102271;1309;70960;-66
2021/12/20 08:42:40;;;;;;;6.80;1.70;;;;;;;-0.14;87.09;100014.83;102800;1310;60154;-66
2021/12/20 08:45:27;;;;;;;6.60;1.60;;;;;;;-0.08;86.57;100020.04;102727;1311;59803;-67
2021/12/20 08:48:14;;;;;;;7.50;1.80;;;;;;;0.04;86.58;100026.26;102216;1310;73312;-67
2021/12/20 08:51:02;;;;;;;7.70;1.70;;;;;;;0.13;86.35;100024.73;102423;1310;68665;-67
2021/12/20 08:53:49;;;;;;;6.40;1.60;;;;;;;0.13;85.97;100031.70;102299;1310;73279;-67
2021/12/20 08:56:36;;;;;;;7.50;2.00;;;;;;;0.08;86.42;100034.52;102540;1310;60125;-67
2021/12/20 08:59:24;;;;;;;8.20;2.20;;;;;;;0.01;86.80;100038.23;102485;1310;59963;-67
2021/12/20 09:02:11;;;;;;;5.70;1.80;;;;;;;0.04;86.72;100032.73;102739;1310;72199;-66
2021/12/20 09:04:58;;;;;;;6.60;1.80;;;;;;;0.16;85.61;100028.63;102524;1310;68917;-67
2021/12/20 09:07:45;;;;;;;5.70;1.40;;;;;;;0.22;84.65;100025.11;102416;1311;73208;-66
2021/12/20 09:10:33;;;;;;;7.10;1.50;;;;;;;0.20;84.41;100030.75;102530;1313;60264;-67
2021/12/20 09:13:20;;;;;;;6.20;1.70;;;;;;;0.14;84.46;100036.56;102475;1311;59775;-67
2021/12/20 09:16:08;;;;;;;9.40;2.20;;;;;;;0.05;85.14;100044.55;102513;1310;72468;-67
2021/12/20 09:18:55;;;;;;;7.90;1.90;;;;;;;-0.05;86.53;100051.33;102560;1311;68473;-66
2021/12/20 09:21:42;;;;;;;8.10;1.60;;;;;;;-0.18;88.97;100063.10;102528;1314;72183;-66
2021/12/20 09:24:29;;;;;;;5.60;1.60;;;;;;;-0.36;90.73;100080.27;102294;1314;59793;-66
2021/12/20 09:27:16;;;;;;;5.40;1.60;;;;;;;-0.57;92.55;100085.98;102189;1311;59885;-66
2021/12/20 09:30:03;;;;;;;4.90;1.60;;;;;;;-0.67;93.95;100082.30;102345;1311;72199;-67
2021/12/20 09:32:51;;;;;;;7.40;1.80;;;;;;;-0.75;93.67;100086.36;101767;1310;1003238;-67
2021/12/20 09:35:38;;;;;;;6.40;1.60;;;;;;;-0.79;93.29;100081.06;101989;1314;73385;-66
2021/12/20 09:38:28;;;;;;;5.30;1.40;;;;;;;-0.77;92.79;100085.55;102537;1310;59815;-65
2021/12/20 09:41:27;;;;;;;6.20;1.60;;;;;;;-0.76;92.19;100088.99;102735;1311;60592;-67
2021/12/20 09:44:18;;;;;;;4.90;1.20;;;;;;;-0.78;92.41;100097.27;102315;1311;72426;-65
2021/12/20 09:47:05;;;;;;;4.90;1.50;;;;;;;-0.90;92.53;100100.23;102228;1311;66749;-66
2021/12/20 09:49:52;;;;;;;5.40;1.50;;;;;;;-0.97;92.87;100105.33;102758;1314;72941;-66
2021/12/20 09:52:46;;;;;;;5.00;1.40;;;;;;;-1.07;93.72;100104.71;102487;1310;59806;-65
2021/12/20 09:55:33;;;;;;;5.20;1.40;;;;;;;-1.16;94.47;100101.68;102242;1311;62128;-66
2021/12/20 09:58:24;;;;;;;7.00;1.50;;;;;;;-1.19;94.69;100102.81;102679;1310;72125;-66
2021/12/20 10:01:14;;;;;;;6.50;1.80;;;;;;;-1.17;95.23;100108.50;102508;1314;66710;-66
2021/12/20 10:04:06;;;;;;;5.60;1.60;;;;;;;-1.17;95.13;100117.73;101755;1310;1003656;-67
2021/12/20 10:06:59;;;;;;;7.80;1.90;;;;;;;-1.12;95.37;100119.48;102547;1309;59589;-66
2021/12/20 10:09:48;;;;;;;6.50;2.00;;;;;;;-0.95;95.11;100112.39;102217;1311;60542;-66
2021/12/20 10:12:35;;;;;;;5.80;1.70;;;;;;;-0.79;94.35;100113.33;102373;1310;72228;-66
2021/12/20 10:15:32;;;;;;;8.40;1.70;;;;;;;-0.74;92.62;100113.69;101627;1311;1003909;-66
2021/12/20 10:18:20;;;;;;;6.00;1.50;;;;;;;-0.75;90.98;100121.91;102348;1316;72613;-66
2021/12/20 10:21:07;;;;;;;6.00;1.50;;;;;;;-0.81;90.84;100122.27;102384;1311;60129;-66
2021/12/20 10:23:55;;;;;;;5.80;1.50;;;;;;;-0.87;90.27;100123.14;102316;1311;59593;-66
2021/12/20 10:26:45;;;;;;;6.80;2.00;;;;;;;-0.86;89.97;100120.30;102560;1314;73606;-66
2021/12/20 10:29:37;;;;;;;5.90;1.40;;;;;;;-0.79;89.80;100122.92;102242;1310;68829;-66
2021/12/20 10:32:55;;;;;;;6.30;1.40;;;;;;;-0.64;89.11;100121.40;102185;1313;71443;-67
2021/12/20 10:35:49;;;;;;;6.30;1.60;;;;;;;0.38;86.37;100120.02;102083;1319;60141;-66
2021/12/20 10:38:42;;;;;;;6.30;1.30;;;;;;;1.54;83.23;100120.95;101899;1324;59805;-66
2021/12/20 10:41:37;;;;;;;6.40;1.40;;;;;;;1.91;79.74;100121.27;101684;1319;73640;-66
2021/12/20 10:44:24;;;;;;;6.70;1.80;;;;;;;1.62;79.14;100132.05;101672;1319;68490;-66
2021/12/20 10:47:26;;;;;;;5.40;1.40;;;;;;;1.29;79.85;100132.26;101570;1319;73084;-66
2021/12/20 10:50:28;;;;;;;7.10;1.80;;;;;;;1.00;79.40;100135.08;101834;1319;59910;-68
2021/12/20 10:53:22;;;;;;;6.50;1.80;;;;;;;0.81;80.13;100142.25;101812;1319;60912;-66
2021/12/20 10:56:11;;;;;;;6.80;2.00;;;;;;;0.72;80.14;100142.58;101309;1325;73375;-66
2021/12/20 10:59:12;;;;;;;6.00;1.60;;;;;;;0.74;80.12;100143.72;101413;1319;68208;-66
2021/12/20 11:05:24;;;;;;;6.70;1.50;;;;;;;1.39;78.85;100147.80;101450;1325;59648;-67
2021/12/20 11:11:39;;;;;;;8.40;2.00;;;;;;;0.75;79.29;100166.39;101589;1317;74871;-66
2021/12/20 11:14:35;;;;;;;7.00;2.10;;;;;;;0.50;80.23;100163.59;102212;1311;67458;-67
2021/12/20 11:17:28;;;;;;;6.80;1.60;;;;;;;0.31;81.13;100176.98;102298;1311;73162;-67
2021/12/20 11:20:21;;;;;;;5.60;1.40;;;;;;;0.11;82.54;100180.79;102261;1311;59815;-66
2021/12/20 11:23:11;;;;;;;5.60;1.30;;;;;;;-0.10;84.51;100175.51;102223;1311;59767;-66
2021/12/20 11:25:58;;;;;;;6.40;1.90;;;;;;;-0.20;85.60;100174.80;102709;1310;73962;-66
2021/12/20 11:28:45;;;;;;;5.00;1.30;;;;;;;-0.17;86.26;100180.96;102257;1314;66839;-66
2021/12/20 11:31:32;;;;;;;5.80;1.50;;;;;;;-0.16;86.33;100178.32;102635;1310;72314;-66
2021/12/20 11:34:20;;;;;;;6.70;1.70;;;;;;;-0.09;86.66;100182.30;102598;1310;59724;-67
2021/12/20 11:37:07;;;;;;;8.10;2.00;;;;;;;-0.11;87.18;100188.63;102255;1311;60480;-66
2021/12/20 11:39:57;;;;;;;6.70;1.90;;;;;;;-0.24;87.58;100197.60;102833;1310;71785;-67
2021/12/20 11:42:44;;;;;;;7.30;1.40;;;;;;;-0.40;88.01;100197.89;102214;1310;68192;-67
2021/12/20 11:45:34;;;;;;;6.90;1.80;;;;;;;-0.54;88.44;100203.70;102420;1310;71813;-66
2021/12/20 11:48:24;;;;;;;5.40;1.60;;;;;;;-0.60;88.15;100201.28;102561;1311;59827;-66
2021/12/20 11:51:10;;;;;;;7.20;2.10;;;;;;;-0.55;87.30;100202.52;102265;1311;59660;-67
2021/12/20 11:53:57;;;;;;;5.70;1.60;;;;;;;0.32;84.87;100205.21;102307;1310;73456;-66
2021/12/20 11:56:43;;;;;;;6.40;1.50;;;;;;;1.26;81.14;100203.67;102155;1314;66879;-68
2021/12/20 11:59:53;;;;;;;6.10;1.90;;;;;;;1.92;76.73;100195.41;102433;1311;73335;-66
2021/12/20 12:02:44;;;;;;;6.40;1.70;;;;;;;1.94;74.99;100195.17;102666;1310;59802;-66
2021/12/20 12:05:55;;;;;;;6.30;1.70;;;;;;;2.01;75.04;100198.05;102169;1310;59686;-68
2021/12/20 12:08:58;;;;;;;6.00;1.70;;;;;;;2.03;73.58;100203.04;102523;1311;73958;-67
2021/12/20 12:12:42;;;;;;;6.40;1.70;;;;;;;2.29;73.32;100207.41;102369;1310;66887;-67
2021/12/20 12:15:42;;;;;;;6.80;1.80;;;;;;;2.29;71.25;100213.35;101993;1319;73559;-67
2021/12/20 12:18:51;;;;;;;7.80;2.30;;;;;;;2.80;69.99;100212.99;100997;1319;1003919;-66
2021/12/20 12:21:41;;;;;;;8.00;2.00;;;;;;;3.12;66.98;100215.47;101601;1319;59731;-67
2021/12/20 12:24:51;;;;;;;7.60;1.70;;;;;;;2.86;66.72;100216.05;101683;1319;73693;-66
2021/12/20 12:27:43;;;;;;;5.40;1.70;;;;;;;2.67;67.44;100219.48;101849;1322;68184;-66
2021/12/20 12:30:32;;;;;;;7.40;1.80;;;;;;;2.24;68.16;100220.05;102043;1319;73938;-66
2021/12/20 12:33:21;;;;;;;7.70;1.90;;;;;;;1.84;69.58;100227.58;101427;1319;59893;-66
2021/12/20 12:36:39;;;;;;;9.90;2.60;;;;;;;1.45;71.19;100233.94;101858;1319;60030;-66
2021/12/20 12:39:28;;;;;;;6.80;1.80;;;;;;;0.95;73.09;100233.48;101936;1317;72025;-66
2021/12/20 12:42:15;;;;;;;8.00;2.00;;;;;;;0.62;74.22;100236.55;100958;1319;1002996;-66
2021/12/20 12:45:52;;;;;;;6.40;1.80;;;;;;;0.32;75.48;100233.48;101739;1319;74464;-66
2021/12/20 12:48:47;;;;;;;5.70;1.60;;;;;;;0.09;76.20;100238.41;101513;1319;59835;-66
2021/12/20 12:51:33;;;;;;;6.90;1.70;;;;;;;-0.06;76.80;100241.52;102053;1313;61028;-66
2021/12/20 12:54:32;;;;;;;5.90;1.90;;;;;;;-0.07;77.48;100242.23;102211;1314;73769;-67
2021/12/20 12:57:19;;;;;;;8.30;2.10;;;;;;;0.08;77.43;100243.33;102018;1310;1003068;-66
2021/12/20 13:00:32;;;;;;;6.60;2.00;;;;;;;0.19;77.08;100241.79;102205;1311;73476;-67
2021/12/20 13:03:20;;;;;;;7.10;2.10;;;;;;;0.20;76.72;100237.22;102536;1311;59697;-66
2021/12/20 13:06:19;;;;;;;7.10;2.10;;;;;;;0.23;75.92;100250.36;102541;1311;60637;-67
2021/12/20 13:09:06;;;;;;;6.90;1.90;;;;;;;0.32;75.38;100253.73;102300;1311;73485;-66
2021/12/20 13:12:09;;;;;;;7.20;2.10;;;;;;;0.34;75.46;100268.17;102321;1311;68097;-67
2021/12/20 13:18:05;;;;;;;8.40;1.90;;;;;;;-0.09;79.90;100282.25;102286;1304;59700;-66
2021/12/20 13:23:47;;;;;;;6.30;1.80;;;;;;;-0.44;81.70;100290.43;102420;1310;73767;-67
2021/12/20 13:26:33;;;;;;;9.30;3.80;;;;;;;-0.51;85.37;100296.02;102389;1310;68431;-66
2021/12/20 13:29:20;;;;;;;6.90;2.00;;;;;;;-0.48;84.33;100301.16;101757;1311;1003202;-66
2021/12/20 13:32:10;;;;;;;8.40;2.00;;;;;;;-0.55;83.71;100297.02;102424;1314;59767;-65
2021/12/20 13:35:00;;;;;;;8.40;2.20;;;;;;;-0.57;83.74;100298.62;102646;1313;59628;-66
2021/12/20 13:37:47;;;;;;;8.60;2.10;;;;;;;-0.57;83.58;100303.48;102220;1314;73874;-66